ES-0001 weather

Trebujena Airfield
Trebujena, AndalucĂ­a, Spain

Public forecast

Using degrees Celsius for public forecast. Weather courtesy of forecast.io.

METAR (pilot weather report)

Closest report is Jerez Airport, 7.8 nm (14.5 km) SSE. Retrieved 2018/10/22 05:00 UTC (1 minute ago):

LEJR 220500Z 00000KT CAVOK 14/14 Q1019

TAF (pilot weather forecast)

Forecast is more than 12 hours old.

Closest forecast is Jerez Airport, 7.8 nm (14.5 km) SSE. Retrieved 2018/10/21 00:27 UTC (1 day ago):

TAF LEJR 212300Z 2200/2224 VRB03KT CAVOK TX26/2214Z TN14/2206Z PROB40 TEMPO 2200/2208 3000 BR